sensor_id;sensor_type;location;lat;lon;timestamp;P1;durP1;ratioP1;P2;durP2;ratioP2
48578;SDS011;34357;51.948;6.132;2023-04-15T00:00:09;9.95;;;6.47;;
48578;SDS011;34357;51.948;6.132;2023-04-15T00:02:38;14.18;;;7.13;;
48578;SDS011;34357;51.948;6.132;2023-04-15T00:05:04;15.05;;;8.02;;
48578;SDS011;34357;51.948;6.132;2023-04-15T00:07:30;15.63;;;8.40;;
48578;SDS011;34357;51.948;6.132;2023-04-15T00:09:57;13.57;;;7.55;;
48578;SDS011;34357;51.948;6.132;2023-04-15T00:12:23;13.60;;;6.68;;
48578;SDS011;34357;51.948;6.132;2023-04-15T00:14:50;13.68;;;7.80;;
48578;SDS011;34357;51.948;6.132;2023-04-15T00:17:15;13.02;;;7.72;;
48578;SDS011;34357;51.948;6.132;2023-04-15T00:19:41;10.27;;;7.60;;
48578;SDS011;34357;51.948;6.132;2023-04-15T00:22:08;14.27;;;8.45;;
48578;SDS011;34357;51.948;6.132;2023-04-15T00:24:34;13.77;;;8.32;;
48578;SDS011;34357;51.948;6.132;2023-04-15T00:27:00;14.93;;;8.90;;
48578;SDS011;34357;51.948;6.132;2023-04-15T00:29:26;13.77;;;8.57;;
48578;SDS011;34357;51.948;6.132;2023-04-15T00:31:52;16.77;;;10.63;;
48578;SDS011;34357;51.948;6.132;2023-04-15T00:34:18;18.55;;;10.55;;
48578;SDS011;34357;51.948;6.132;2023-04-15T00:36:44;11.98;;;8.25;;
48578;SDS011;34357;51.948;6.132;2023-04-15T00:39:10;13.93;;;7.63;;
48578;SDS011;34357;51.948;6.132;2023-04-15T00:41:36;13.73;;;8.80;;
48578;SDS011;34357;51.948;6.132;2023-04-15T00:44:04;11.77;;;8.07;;
48578;SDS011;34357;51.948;6.132;2023-04-15T00:46:32;12.90;;;8.07;;
48578;SDS011;34357;51.948;6.132;2023-04-15T00:49:00;15.50;;;9.02;;
48578;SDS011;34357;51.948;6.132;2023-04-15T00:51:27;13.55;;;9.05;;
48578;SDS011;34357;51.948;6.132;2023-04-15T00:53:53;11.35;;;8.43;;
48578;SDS011;34357;51.948;6.132;2023-04-15T00:56:19;14.40;;;8.65;;
48578;SDS011;34357;51.948;6.132;2023-04-15T00:58:50;13.10;;;8.27;;
48578;SDS011;34357;51.948;6.132;2023-04-15T01:01:19;12.18;;;8.73;;
48578;SDS011;34357;51.948;6.132;2023-04-15T01:03:50;16.43;;;9.43;;
48578;SDS011;34357;51.948;6.132;2023-04-15T01:06:16;14.98;;;9.13;;
48578;SDS011;34357;51.948;6.132;2023-04-15T01:08:43;12.63;;;8.48;;
48578;SDS011;34357;51.948;6.132;2023-04-15T01:11:12;13.35;;;8.43;;
48578;SDS011;34357;51.948;6.132;2023-04-15T01:13:38;12.57;;;8.75;;
48578;SDS011;34357;51.948;6.132;2023-04-15T01:16:05;14.75;;;8.63;;
48578;SDS011;34357;51.948;6.132;2023-04-15T01:18:32;15.10;;;8.88;;
48578;SDS011;34357;51.948;6.132;2023-04-15T01:20:59;13.45;;;8.73;;
48578;SDS011;34357;51.948;6.132;2023-04-15T01:23:29;13.82;;;9.52;;
48578;SDS011;34357;51.948;6.132;2023-04-15T01:25:56;20.05;;;10.15;;
48578;SDS011;34357;51.948;6.132;2023-04-15T01:28:23;14.82;;;10.13;;
48578;SDS011;34357;51.948;6.132;2023-04-15T01:30:49;17.13;;;9.23;;
48578;SDS011;34357;51.948;6.132;2023-04-15T01:33:30;15.88;;;9.40;;
48578;SDS011;34357;51.948;6.132;2023-04-15T01:35:56;16.02;;;9.38;;
48578;SDS011;34357;51.948;6.132;2023-04-15T01:38:25;15.40;;;8.93;;
48578;SDS011;34357;51.948;6.132;2023-04-15T01:40:52;14.48;;;8.82;;
48578;SDS011;34357;51.948;6.132;2023-04-15T01:43:18;14.80;;;9.82;;
48578;SDS011;34357;51.948;6.132;2023-04-15T01:45:44;12.75;;;8.88;;
48578;SDS011;34357;51.948;6.132;2023-04-15T01:48:09;13.43;;;8.60;;
48578;SDS011;34357;51.948;6.132;2023-04-15T01:50:36;11.65;;;8.85;;
48578;SDS011;34357;51.948;6.132;2023-04-15T01:53:02;15.13;;;9.18;;
48578;SDS011;34357;51.948;6.132;2023-04-15T01:55:28;12.10;;;7.90;;
48578;SDS011;34357;51.948;6.132;2023-04-15T01:57:55;12.40;;;8.35;;
48578;SDS011;34357;51.948;6.132;2023-04-15T02:00:21;12.80;;;8.60;;
48578;SDS011;34357;51.948;6.132;2023-04-15T02:02:47;13.25;;;9.20;;
48578;SDS011;34357;51.948;6.132;2023-04-15T02:05:13;11.98;;;9.05;;
48578;SDS011;34357;51.948;6.132;2023-04-15T02:07:45;16.00;;;9.38;;
48578;SDS011;34357;51.948;6.132;2023-04-15T02:10:12;13.15;;;9.43;;
48578;SDS011;34357;51.948;6.132;2023-04-15T02:12:38;11.23;;;8.90;;
48578;SDS011;34357;51.948;6.132;2023-04-15T02:15:05;12.68;;;9.40;;
48578;SDS011;34357;51.948;6.132;2023-04-15T02:17:34;16.25;;;10.10;;
48578;SDS011;34357;51.948;6.132;2023-04-15T02:20:01;13.55;;;9.93;;
48578;SDS011;34357;51.948;6.132;2023-04-15T02:22:30;14.88;;;9.55;;
48578;SDS011;34357;51.948;6.132;2023-04-15T02:24:56;13.52;;;9.85;;
48578;SDS011;34357;51.948;6.132;2023-04-15T02:27:22;14.15;;;9.52;;
48578;SDS011;34357;51.948;6.132;2023-04-15T02:29:48;12.95;;;9.32;;
48578;SDS011;34357;51.948;6.132;2023-04-15T02:32:15;13.60;;;9.20;;
48578;SDS011;34357;51.948;6.132;2023-04-15T02:34:41;15.20;;;9.65;;
48578;SDS011;34357;51.948;6.132;2023-04-15T02:37:08;16.85;;;9.35;;
48578;SDS011;34357;51.948;6.132;2023-04-15T02:39:35;18.95;;;10.30;;
48578;SDS011;34357;51.948;6.132;2023-04-15T02:42:02;14.57;;;9.55;;
48578;SDS011;34357;51.948;6.132;2023-04-15T02:44:29;14.32;;;9.77;;
48578;SDS011;34357;51.948;6.132;2023-04-15T02:46:58;17.00;;;9.20;;
48578;SDS011;34357;51.948;6.132;2023-04-15T02:49:24;12.45;;;9.73;;
48578;SDS011;34357;51.948;6.132;2023-04-15T02:51:50;17.48;;;9.98;;
48578;SDS011;34357;51.948;6.132;2023-04-15T02:54:17;16.42;;;9.88;;
48578;SDS011;34357;51.948;6.132;2023-04-15T02:56:49;15.88;;;10.25;;
48578;SDS011;34357;51.948;6.132;2023-04-15T02:59:16;19.33;;;10.88;;
48578;SDS011;34357;51.948;6.132;2023-04-15T03:01:41;16.77;;;10.77;;
48578;SDS011;34357;51.948;6.132;2023-04-15T03:04:07;20.48;;;10.02;;
48578;SDS011;34357;51.948;6.132;2023-04-15T03:06:33;12.88;;;9.80;;
48578;SDS011;34357;51.948;6.132;2023-04-15T03:08:59;13.90;;;11.15;;
48578;SDS011;34357;51.948;6.132;2023-04-15T03:11:28;15.10;;;10.80;;
48578;SDS011;34357;51.948;6.132;2023-04-15T03:13:54;18.15;;;10.38;;
48578;SDS011;34357;51.948;6.132;2023-04-15T03:16:33;15.93;;;10.82;;
48578;SDS011;34357;51.948;6.132;2023-04-15T03:18:58;15.52;;;9.98;;
48578;SDS011;34357;51.948;6.132;2023-04-15T03:21:24;16.13;;;11.38;;
48578;SDS011;34357;51.948;6.132;2023-04-15T03:23:51;17.77;;;10.48;;
48578;SDS011;34357;51.948;6.132;2023-04-15T03:26:27;14.23;;;10.60;;
48578;SDS011;34357;51.948;6.132;2023-04-15T03:28:56;16.63;;;11.13;;
48578;SDS011;34357;51.948;6.132;2023-04-15T03:31:22;17.83;;;10.70;;
48578;SDS011;34357;51.948;6.132;2023-04-15T03:33:48;14.80;;;10.63;;
48578;SDS011;34357;51.948;6.132;2023-04-15T03:36:14;14.43;;;10.70;;
48578;SDS011;34357;51.948;6.132;2023-04-15T03:38:41;14.13;;;11.02;;
48578;SDS011;34357;51.948;6.132;2023-04-15T03:41:07;18.88;;;11.55;;
48578;SDS011;34357;51.948;6.132;2023-04-15T03:43:33;13.80;;;10.60;;
48578;SDS011;34357;51.948;6.132;2023-04-15T03:45:59;16.92;;;12.02;;
48578;SDS011;34357;51.948;6.132;2023-04-15T03:48:25;17.33;;;11.45;;
48578;SDS011;34357;51.948;6.132;2023-04-15T03:50:51;16.50;;;11.60;;
48578;SDS011;34357;51.948;6.132;2023-04-15T03:53:17;18.20;;;11.82;;
48578;SDS011;34357;51.948;6.132;2023-04-15T03:55:42;19.33;;;13.18;;
48578;SDS011;34357;51.948;6.132;2023-04-15T03:58:08;16.95;;;11.65;;
48578;SDS011;34357;51.948;6.132;2023-04-15T04:00:37;16.45;;;12.07;;
48578;SDS011;34357;51.948;6.132;2023-04-15T04:03:03;14.95;;;11.63;;
48578;SDS011;34357;51.948;6.132;2023-04-15T04:05:29;16.70;;;12.45;;
48578;SDS011;34357;51.948;6.132;2023-04-15T04:07:55;20.60;;;13.25;;
48578;SDS011;34357;51.948;6.132;2023-04-15T04:10:21;19.60;;;12.85;;
48578;SDS011;34357;51.948;6.132;2023-04-15T04:12:46;16.92;;;12.20;;
48578;SDS011;34357;51.948;6.132;2023-04-15T04:15:12;19.27;;;13.35;;
48578;SDS011;34357;51.948;6.132;2023-04-15T04:17:38;19.13;;;13.68;;
48578;SDS011;34357;51.948;6.132;2023-04-15T04:20:04;18.23;;;13.43;;
48578;SDS011;34357;51.948;6.132;2023-04-15T04:22:30;20.00;;;13.30;;
48578;SDS011;34357;51.948;6.132;2023-04-15T04:24:56;19.00;;;14.10;;
48578;SDS011;34357;51.948;6.132;2023-04-15T04:27:23;23.33;;;14.57;;
48578;SDS011;34357;51.948;6.132;2023-04-15T04:29:50;18.75;;;13.93;;
48578;SDS011;34357;51.948;6.132;2023-04-15T04:32:15;17.73;;;13.02;;
48578;SDS011;34357;51.948;6.132;2023-04-15T04:34:41;19.38;;;13.77;;
48578;SDS011;34357;51.948;6.132;2023-04-15T04:37:07;19.83;;;13.25;;
48578;SDS011;34357;51.948;6.132;2023-04-15T04:39:32;22.25;;;14.43;;
48578;SDS011;34357;51.948;6.132;2023-04-15T04:41:58;17.13;;;14.20;;
48578;SDS011;34357;51.948;6.132;2023-04-15T04:44:25;17.52;;;14.18;;
48578;SDS011;34357;51.948;6.132;2023-04-15T04:46:51;20.42;;;14.30;;
48578;SDS011;34357;51.948;6.132;2023-04-15T04:49:17;21.20;;;14.93;;
48578;SDS011;34357;51.948;6.132;2023-04-15T04:51:42;17.95;;;14.65;;
48578;SDS011;34357;51.948;6.132;2023-04-15T04:54:08;24.40;;;15.52;;
48578;SDS011;34357;51.948;6.132;2023-04-15T04:56:34;21.23;;;14.27;;
48578;SDS011;34357;51.948;6.132;2023-04-15T04:58:59;19.48;;;14.77;;
48578;SDS011;34357;51.948;6.132;2023-04-15T05:01:25;21.48;;;14.55;;
48578;SDS011;34357;51.948;6.132;2023-04-15T05:03:51;19.15;;;15.57;;
48578;SDS011;34357;51.948;6.132;2023-04-15T05:06:17;22.80;;;14.57;;
48578;SDS011;34357;51.948;6.132;2023-04-15T05:08:43;18.00;;;14.07;;
48578;SDS011;34357;51.948;6.132;2023-04-15T05:11:10;24.10;;;15.15;;
48578;SDS011;34357;51.948;6.132;2023-04-15T05:13:37;18.85;;;15.48;;
48578;SDS011;34357;51.948;6.132;2023-04-15T05:16:03;22.13;;;15.18;;
48578;SDS011;34357;51.948;6.132;2023-04-15T05:18:30;22.65;;;16.67;;
48578;SDS011;34357;51.948;6.132;2023-04-15T05:20:55;25.88;;;15.77;;
48578;SDS011;34357;51.948;6.132;2023-04-15T05:23:21;22.20;;;15.55;;
48578;SDS011;34357;51.948;6.132;2023-04-15T05:25:47;22.25;;;15.52;;
48578;SDS011;34357;51.948;6.132;2023-04-15T05:28:13;26.73;;;16.50;;
48578;SDS011;34357;51.948;6.132;2023-04-15T05:30:39;23.00;;;16.35;;
48578;SDS011;34357;51.948;6.132;2023-04-15T05:33:04;24.98;;;15.68;;
48578;SDS011;34357;51.948;6.132;2023-04-15T05:35:30;22.63;;;15.93;;
48578;SDS011;34357;51.948;6.132;2023-04-15T05:37:56;21.42;;;16.15;;
48578;SDS011;34357;51.948;6.132;2023-04-15T05:40:21;19.80;;;15.15;;
48578;SDS011;34357;51.948;6.132;2023-04-15T05:42:47;23.30;;;16.50;;
48578;SDS011;34357;51.948;6.132;2023-04-15T05:45:15;21.25;;;15.07;;
48578;SDS011;34357;51.948;6.132;2023-04-15T05:47:41;21.30;;;15.63;;
48578;SDS011;34357;51.948;6.132;2023-04-15T05:50:07;19.52;;;14.95;;
48578;SDS011;34357;51.948;6.132;2023-04-15T05:52:33;20.23;;;14.95;;
48578;SDS011;34357;51.948;6.132;2023-04-15T05:54:59;19.17;;;15.23;;
48578;SDS011;34357;51.948;6.132;2023-04-15T05:57:25;19.92;;;14.93;;
48578;SDS011;34357;51.948;6.132;2023-04-15T05:59:50;20.88;;;15.07;;
48578;SDS011;34357;51.948;6.132;2023-04-15T06:02:17;19.63;;;15.38;;
48578;SDS011;34357;51.948;6.132;2023-04-15T06:04:42;21.17;;;15.20;;
48578;SDS011;34357;51.948;6.132;2023-04-15T06:07:08;22.48;;;15.57;;
48578;SDS011;34357;51.948;6.132;2023-04-15T06:09:35;19.90;;;15.23;;
48578;SDS011;34357;51.948;6.132;2023-04-15T06:12:00;19.90;;;16.63;;
48578;SDS011;34357;51.948;6.132;2023-04-15T06:14:27;20.23;;;14.85;;
48578;SDS011;34357;51.948;6.132;2023-04-15T06:16:52;18.45;;;14.75;;
48578;SDS011;34357;51.948;6.132;2023-04-15T06:19:18;18.13;;;14.27;;
48578;SDS011;34357;51.948;6.132;2023-04-15T06:21:44;17.35;;;13.25;;
48578;SDS011;34357;51.948;6.132;2023-04-15T06:24:10;15.60;;;13.07;;
48578;SDS011;34357;51.948;6.132;2023-04-15T06:26:36;14.27;;;12.48;;
48578;SDS011;34357;51.948;6.132;2023-04-15T06:29:02;17.45;;;11.98;;
48578;SDS011;34357;51.948;6.132;2023-04-15T06:31:28;17.27;;;12.27;;
48578;SDS011;34357;51.948;6.132;2023-04-15T06:33:54;13.63;;;11.23;;
48578;SDS011;34357;51.948;6.132;2023-04-15T06:36:20;16.92;;;12.38;;
48578;SDS011;34357;51.948;6.132;2023-04-15T06:38:46;15.40;;;11.70;;
48578;SDS011;34357;51.948;6.132;2023-04-15T06:41:11;15.80;;;11.95;;
48578;SDS011;34357;51.948;6.132;2023-04-15T06:43:38;14.82;;;11.95;;
48578;SDS011;34357;51.948;6.132;2023-04-15T06:46:04;14.48;;;11.98;;
48578;SDS011;34357;51.948;6.132;2023-04-15T06:48:30;17.15;;;11.27;;
48578;SDS011;34357;51.948;6.132;2023-04-15T06:50:56;16.13;;;10.95;;
48578;SDS011;34357;51.948;6.132;2023-04-15T06:53:24;13.35;;;11.00;;
48578;SDS011;34357;51.948;6.132;2023-04-15T06:55:52;13.27;;;11.30;;
48578;SDS011;34357;51.948;6.132;2023-04-15T06:58:17;14.68;;;11.20;;
48578;SDS011;34357;51.948;6.132;2023-04-15T07:00:43;13.95;;;11.07;;
48578;SDS011;34357;51.948;6.132;2023-04-15T07:03:10;16.30;;;11.70;;
48578;SDS011;34357;51.948;6.132;2023-04-15T07:05:37;14.30;;;10.65;;
48578;SDS011;34357;51.948;6.132;2023-04-15T07:08:03;13.55;;;11.80;;
48578;SDS011;34357;51.948;6.132;2023-04-15T07:10:29;14.88;;;12.10;;
48578;SDS011;34357;51.948;6.132;2023-04-15T07:12:55;16.25;;;12.18;;
48578;SDS011;34357;51.948;6.132;2023-04-15T07:15:21;17.33;;;13.32;;
48578;SDS011;34357;51.948;6.132;2023-04-15T07:17:47;18.38;;;13.15;;
48578;SDS011;34357;51.948;6.132;2023-04-15T07:20:13;16.67;;;12.55;;
48578;SDS011;34357;51.948;6.132;2023-04-15T07:22:39;15.88;;;12.48;;
48578;SDS011;34357;51.948;6.132;2023-04-15T07:25:05;14.35;;;11.63;;
48578;SDS011;34357;51.948;6.132;2023-04-15T07:27:32;19.73;;;12.68;;
48578;SDS011;34357;51.948;6.132;2023-04-15T07:29:57;15.43;;;11.95;;
48578;SDS011;34357;51.948;6.132;2023-04-15T07:32:23;14.98;;;11.95;;
48578;SDS011;34357;51.948;6.132;2023-04-15T07:34:49;25.90;;;15.55;;
48578;SDS011;34357;51.948;6.132;2023-04-15T07:37:14;16.65;;;12.20;;
48578;SDS011;34357;51.948;6.132;2023-04-15T07:39:40;17.02;;;12.68;;
48578;SDS011;34357;51.948;6.132;2023-04-15T07:42:06;17.88;;;12.02;;
48578;SDS011;34357;51.948;6.132;2023-04-15T07:44:32;14.88;;;12.63;;
48578;SDS011;34357;51.948;6.132;2023-04-15T07:46:58;16.83;;;11.85;;
48578;SDS011;34357;51.948;6.132;2023-04-15T07:49:24;14.60;;;12.23;;
48578;SDS011;34357;51.948;6.132;2023-04-15T07:51:50;18.85;;;12.73;;
48578;SDS011;34357;51.948;6.132;2023-04-15T07:54:17;15.07;;;12.32;;
48578;SDS011;34357;51.948;6.132;2023-04-15T07:56:42;15.43;;;11.93;;
48578;SDS011;34357;51.948;6.132;2023-04-15T07:59:08;17.13;;;12.38;;
48578;SDS011;34357;51.948;6.132;2023-04-15T08:01:34;14.52;;;11.27;;
48578;SDS011;34357;51.948;6.132;2023-04-15T08:04:00;15.93;;;11.45;;
48578;SDS011;34357;51.948;6.132;2023-04-15T08:06:27;13.25;;;10.73;;
48578;SDS011;34357;51.948;6.132;2023-04-15T08:08:53;13.27;;;10.70;;
48578;SDS011;34357;51.948;6.132;2023-04-15T08:11:19;17.35;;;10.52;;
48578;SDS011;34357;51.948;6.132;2023-04-15T08:13:45;16.27;;;11.20;;
48578;SDS011;34357;51.948;6.132;2023-04-15T08:18:44;13.60;;;10.40;;
48578;SDS011;34357;51.948;6.132;2023-04-15T08:21:10;12.80;;;10.25;;
48578;SDS011;34357;51.948;6.132;2023-04-15T08:23:36;13.52;;;9.80;;
48578;SDS011;34357;51.948;6.132;2023-04-15T08:26:03;11.23;;;8.80;;
48578;SDS011;34357;51.948;6.132;2023-04-15T08:28:29;10.68;;;8.23;;
48578;SDS011;34357;51.948;6.132;2023-04-15T08:30:54;9.73;;;8.20;;
48578;SDS011;34357;51.948;6.132;2023-04-15T08:33:21;11.77;;;8.80;;
48578;SDS011;34357;51.948;6.132;2023-04-15T08:35:47;9.85;;;7.65;;
48578;SDS011;34357;51.948;6.132;2023-04-15T08:38:13;10.23;;;8.18;;
48578;SDS011;34357;51.948;6.132;2023-04-15T08:40:40;10.10;;;7.97;;
48578;SDS011;34357;51.948;6.132;2023-04-15T08:43:08;10.05;;;8.05;;
48578;SDS011;34357;51.948;6.132;2023-04-15T08:45:37;9.65;;;7.95;;
48578;SDS011;34357;51.948;6.132;2023-04-15T08:48:04;10.05;;;8.27;;
48578;SDS011;34357;51.948;6.132;2023-04-15T08:50:31;11.68;;;8.55;;
48578;SDS011;34357;51.948;6.132;2023-04-15T08:52:59;9.00;;;7.30;;
48578;SDS011;34357;51.948;6.132;2023-04-15T08:55:27;9.15;;;7.65;;
48578;SDS011;34357;51.948;6.132;2023-04-15T08:57:57;8.85;;;7.88;;
48578;SDS011;34357;51.948;6.132;2023-04-15T09:00:24;10.15;;;7.30;;
48578;SDS011;34357;51.948;6.132;2023-04-15T09:02:51;7.95;;;6.88;;
48578;SDS011;34357;51.948;6.132;2023-04-15T09:05:16;9.13;;;6.47;;
48578;SDS011;34357;51.948;6.132;2023-04-15T09:07:42;7.85;;;6.47;;
48578;SDS011;34357;51.948;6.132;2023-04-15T09:10:08;7.10;;;5.40;;
48578;SDS011;34357;51.948;6.132;2023-04-15T09:12:34;8.07;;;5.68;;
48578;SDS011;34357;51.948;6.132;2023-04-15T09:15:01;8.32;;;5.45;;
48578;SDS011;34357;51.948;6.132;2023-04-15T09:17:27;7.45;;;5.75;;
48578;SDS011;34357;51.948;6.132;2023-04-15T09:20:06;6.97;;;5.97;;
48578;SDS011;34357;51.948;6.132;2023-04-15T09:22:33;7.00;;;5.57;;
48578;SDS011;34357;51.948;6.132;2023-04-15T09:25:01;7.72;;;5.70;;
48578;SDS011;34357;51.948;6.132;2023-04-15T09:27:27;8.00;;;5.72;;
48578;SDS011;34357;51.948;6.132;2023-04-15T09:29:53;6.97;;;5.20;;
48578;SDS011;34357;51.948;6.132;2023-04-15T09:32:19;6.10;;;5.38;;
48578;SDS011;34357;51.948;6.132;2023-04-15T09:34:48;6.10;;;4.75;;
48578;SDS011;34357;51.948;6.132;2023-04-15T09:37:14;7.47;;;4.85;;
48578;SDS011;34357;51.948;6.132;2023-04-15T09:39:49;6.43;;;4.80;;
48578;SDS011;34357;51.948;6.132;2023-04-15T09:42:16;7.82;;;5.18;;
48578;SDS011;34357;51.948;6.132;2023-04-15T09:44:48;6.28;;;5.10;;
48578;SDS011;34357;51.948;6.132;2023-04-15T09:47:31;6.88;;;5.85;;
48578;SDS011;34357;51.948;6.132;2023-04-15T09:49:57;9.93;;;5.75;;
48578;SDS011;34357;51.948;6.132;2023-04-15T09:52:24;9.50;;;5.90;;
48578;SDS011;34357;51.948;6.132;2023-04-15T09:54:51;7.93;;;6.18;;
48578;SDS011;34357;51.948;6.132;2023-04-15T09:57:19;6.97;;;5.50;;
48578;SDS011;34357;51.948;6.132;2023-04-15T09:59:46;7.18;;;5.90;;
48578;SDS011;34357;51.948;6.132;2023-04-15T10:02:12;7.82;;;5.90;;
48578;SDS011;34357;51.948;6.132;2023-04-15T10:04:39;7.63;;;5.40;;
48578;SDS011;34357;51.948;6.132;2023-04-15T10:07:09;8.40;;;5.40;;
48578;SDS011;34357;51.948;6.132;2023-04-15T10:09:39;9.65;;;5.40;;
48578;SDS011;34357;51.948;6.132;2023-04-15T10:12:05;6.78;;;5.05;;
48578;SDS011;34357;51.948;6.132;2023-04-15T10:14:32;7.03;;;5.20;;
48578;SDS011;34357;51.948;6.132;2023-04-15T10:17:00;16.88;;;4.93;;
48578;SDS011;34357;51.948;6.132;2023-04-15T10:19:27;5.55;;;4.60;;
48578;SDS011;34357;51.948;6.132;2023-04-15T10:21:55;5.45;;;4.40;;
48578;SDS011;34357;51.948;6.132;2023-04-15T10:24:22;7.13;;;5.22;;
48578;SDS011;34357;51.948;6.132;2023-04-15T10:26:50;6.47;;;5.03;;
48578;SDS011;34357;51.948;6.132;2023-04-15T10:29:16;6.95;;;5.30;;
48578;SDS011;34357;51.948;6.132;2023-04-15T10:31:43;8.25;;;5.72;;
48578;SDS011;34357;51.948;6.132;2023-04-15T10:34:10;7.65;;;5.68;;
48578;SDS011;34357;51.948;6.132;2023-04-15T10:36:36;8.43;;;5.65;;
48578;SDS011;34357;51.948;6.132;2023-04-15T10:39:03;8.57;;;6.18;;
48578;SDS011;34357;51.948;6.132;2023-04-15T10:42:07;8.82;;;5.45;;
48578;SDS011;34357;51.948;6.132;2023-04-15T10:44:37;7.15;;;4.90;;
48578;SDS011;34357;51.948;6.132;2023-04-15T10:47:05;7.30;;;5.57;;
48578;SDS011;34357;51.948;6.132;2023-04-15T10:49:46;5.57;;;4.35;;
48578;SDS011;34357;51.948;6.132;2023-04-15T10:52:30;4.93;;;3.97;;
48578;SDS011;34357;51.948;6.132;2023-04-15T10:55:12;6.10;;;4.05;;
48578;SDS011;34357;51.948;6.132;2023-04-15T10:57:40;5.28;;;3.75;;
48578;SDS011;34357;51.948;6.132;2023-04-15T11:05:11;4.38;;;3.50;;
48578;SDS011;34357;51.948;6.132;2023-04-15T11:07:51;6.40;;;4.63;;
48578;SDS011;34357;51.948;6.132;2023-04-15T11:12:52;7.22;;;3.50;;
48578;SDS011;34357;51.948;6.132;2023-04-15T11:15:29;6.47;;;3.95;;
48578;SDS011;34357;51.948;6.132;2023-04-15T11:17:57;5.60;;;3.63;;
48578;SDS011;34357;51.948;6.132;2023-04-15T11:20:24;5.38;;;3.60;;
48578;SDS011;34357;51.948;6.132;2023-04-15T11:22:50;6.32;;;4.10;;
48578;SDS011;34357;51.948;6.132;2023-04-15T11:25:24;6.28;;;3.70;;
48578;SDS011;34357;51.948;6.132;2023-04-15T11:27:52;4.60;;;3.45;;
48578;SDS011;34357;51.948;6.132;2023-04-15T11:30:22;5.32;;;3.50;;
48578;SDS011;34357;51.948;6.132;2023-04-15T11:32:56;5.78;;;3.90;;
48578;SDS011;34357;51.948;6.132;2023-04-15T11:35:23;14.00;;;4.78;;
48578;SDS011;34357;51.948;6.132;2023-04-15T11:37:49;4.70;;;3.42;;
48578;SDS011;34357;51.948;6.132;2023-04-15T11:40:16;5.63;;;3.83;;
48578;SDS011;34357;51.948;6.132;2023-04-15T11:43:02;4.70;;;3.45;;
48578;SDS011;34357;51.948;6.132;2023-04-15T11:45:28;7.45;;;3.58;;
48578;SDS011;34357;51.948;6.132;2023-04-15T11:47:53;6.00;;;3.40;;
48578;SDS011;34357;51.948;6.132;2023-04-15T11:50:20;7.22;;;3.13;;
48578;SDS011;34357;51.948;6.132;2023-04-15T11:55:24;6.07;;;2.88;;
48578;SDS011;34357;51.948;6.132;2023-04-15T12:00:38;2.83;;;2.40;;
48578;SDS011;34357;51.948;6.132;2023-04-15T12:03:11;4.03;;;2.22;;
48578;SDS011;34357;51.948;6.132;2023-04-15T12:08:51;7.55;;;3.05;;
48578;SDS011;34357;51.948;6.132;2023-04-15T12:13:55;2.85;;;2.25;;
48578;SDS011;34357;51.948;6.132;2023-04-15T12:16:22;6.68;;;2.53;;
48578;SDS011;34357;51.948;6.132;2023-04-15T12:18:49;4.60;;;1.98;;
48578;SDS011;34357;51.948;6.132;2023-04-15T12:21:18;4.32;;;2.28;;
48578;SDS011;34357;51.948;6.132;2023-04-15T12:23:47;5.45;;;2.22;;
48578;SDS011;34357;51.948;6.132;2023-04-15T12:26:17;3.45;;;1.80;;
48578;SDS011;34357;51.948;6.132;2023-04-15T12:28:52;4.65;;;2.10;;
48578;SDS011;34357;51.948;6.132;2023-04-15T12:31:25;3.83;;;2.03;;
48578;SDS011;34357;51.948;6.132;2023-04-15T12:33:50;3.13;;;1.90;;
48578;SDS011;34357;51.948;6.132;2023-04-15T12:36:19;6.35;;;2.15;;
48578;SDS011;34357;51.948;6.132;2023-04-15T12:38:44;4.13;;;2.20;;
48578;SDS011;34357;51.948;6.132;2023-04-15T12:41:10;5.22;;;1.83;;
48578;SDS011;34357;51.948;6.132;2023-04-15T12:43:36;4.35;;;1.65;;
48578;SDS011;34357;51.948;6.132;2023-04-15T12:46:02;3.88;;;1.83;;
48578;SDS011;34357;51.948;6.132;2023-04-15T12:48:28;2.55;;;1.35;;
48578;SDS011;34357;51.948;6.132;2023-04-15T12:50:55;2.42;;;1.45;;
48578;SDS011;34357;51.948;6.132;2023-04-15T12:53:21;2.88;;;1.65;;
48578;SDS011;34357;51.948;6.132;2023-04-15T12:55:47;5.22;;;1.80;;
48578;SDS011;34357;51.948;6.132;2023-04-15T12:58:12;3.47;;;1.65;;
48578;SDS011;34357;51.948;6.132;2023-04-15T13:00:38;3.58;;;1.35;;
48578;SDS011;34357;51.948;6.132;2023-04-15T13:03:04;2.45;;;1.48;;
48578;SDS011;34357;51.948;6.132;2023-04-15T13:05:29;3.28;;;1.48;;
48578;SDS011;34357;51.948;6.132;2023-04-15T13:07:55;4.15;;;1.70;;
48578;SDS011;34357;51.948;6.132;2023-04-15T13:10:21;2.65;;;1.50;;
48578;SDS011;34357;51.948;6.132;2023-04-15T13:12:50;3.50;;;1.58;;
48578;SDS011;34357;51.948;6.132;2023-04-15T13:15:18;2.55;;;1.30;;
48578;SDS011;34357;51.948;6.132;2023-04-15T13:17:45;2.92;;;1.45;;
48578;SDS011;34357;51.948;6.132;2023-04-15T13:20:11;1.27;;;1.00;;
48578;SDS011;34357;51.948;6.132;2023-04-15T13:22:36;5.70;;;1.40;;
48578;SDS011;34357;51.948;6.132;2023-04-15T13:25:02;5.25;;;1.17;;
48578;SDS011;34357;51.948;6.132;2023-04-15T13:27:28;4.53;;;1.20;;
48578;SDS011;34357;51.948;6.132;2023-04-15T13:29:54;3.50;;;2.00;;
48578;SDS011;34357;51.948;6.132;2023-04-15T13:32:19;5.70;;;2.50;;
48578;SDS011;34357;51.948;6.132;2023-04-15T13:34:45;3.35;;;1.20;;
48578;SDS011;34357;51.948;6.132;2023-04-15T13:37:11;4.93;;;1.15;;
48578;SDS011;34357;51.948;6.132;2023-04-15T13:39:36;2.13;;;0.90;;
48578;SDS011;34357;51.948;6.132;2023-04-15T13:42:02;2.28;;;0.80;;
48578;SDS011;34357;51.948;6.132;2023-04-15T13:44:28;2.63;;;1.27;;
48578;SDS011;34357;51.948;6.132;2023-04-15T13:46:54;4.55;;;1.27;;
48578;SDS011;34357;51.948;6.132;2023-04-15T13:49:19;2.22;;;0.90;;
48578;SDS011;34357;51.948;6.132;2023-04-15T13:51:45;1.13;;;0.85;;
48578;SDS011;34357;51.948;6.132;2023-04-15T13:54:11;1.17;;;0.80;;
48578;SDS011;34357;51.948;6.132;2023-04-15T13:56:36;2.45;;;1.23;;
48578;SDS011;34357;51.948;6.132;2023-04-15T13:59:02;2.72;;;1.13;;
48578;SDS011;34357;51.948;6.132;2023-04-15T14:01:28;4.85;;;1.23;;
48578;SDS011;34357;51.948;6.132;2023-04-15T14:03:54;1.77;;;1.02;;
48578;SDS011;34357;51.948;6.132;2023-04-15T14:06:20;4.15;;;1.13;;
48578;SDS011;34357;51.948;6.132;2023-04-15T14:08:46;0.93;;;0.73;;
48578;SDS011;34357;51.948;6.132;2023-04-15T14:11:11;1.88;;;1.30;;
48578;SDS011;34357;51.948;6.132;2023-04-15T14:13:37;2.15;;;1.15;;
48578;SDS011;34357;51.948;6.132;2023-04-15T14:16:03;4.43;;;1.63;;
48578;SDS011;34357;51.948;6.132;2023-04-15T14:18:29;2.05;;;0.93;;
48578;SDS011;34357;51.948;6.132;2023-04-15T14:20:55;1.70;;;0.90;;
48578;SDS011;34357;51.948;6.132;2023-04-15T14:23:24;4.57;;;1.40;;
48578;SDS011;34357;51.948;6.132;2023-04-15T14:25:50;3.47;;;1.48;;
48578;SDS011;34357;51.948;6.132;2023-04-15T14:28:16;4.50;;;1.50;;
48578;SDS011;34357;51.948;6.132;2023-04-15T14:30:41;9.38;;;3.58;;
48578;SDS011;34357;51.948;6.132;2023-04-15T14:33:07;4.57;;;1.35;;
48578;SDS011;34357;51.948;6.132;2023-04-15T14:35:33;5.88;;;1.73;;
48578;SDS011;34357;51.948;6.132;2023-04-15T14:37:59;11.60;;;2.63;;
48578;SDS011;34357;51.948;6.132;2023-04-15T14:40:24;4.18;;;1.60;;
48578;SDS011;34357;51.948;6.132;2023-04-15T14:42:50;4.60;;;1.73;;
48578;SDS011;34357;51.948;6.132;2023-04-15T14:45:16;5.03;;;2.17;;
48578;SDS011;34357;51.948;6.132;2023-04-15T14:47:42;7.70;;;2.20;;
48578;SDS011;34357;51.948;6.132;2023-04-15T14:50:08;4.70;;;1.70;;
48578;SDS011;34357;51.948;6.132;2023-04-15T14:52:34;5.47;;;2.00;;
48578;SDS011;34357;51.948;6.132;2023-04-15T14:55:06;5.15;;;2.20;;